Time;durP1;ratioP1;P1;durP2;ratioP2;P2;SDS_P1;SDS_P2;PMS_P1;PMS_P2;Temp;Humidity;BMP_temperature;BMP_pressure;BME280_temperature;BME280_humidity;BME280_pressure;Samples;Min_cycle;Max_cycle;Signal;HPM_P1;HPM_P2
2023/12/11 00:00:26;;;;;;;23.85;3.55;;;9.20;99.90;;;;;;5095309;28;20425;-80
2023/12/11 00:02:51;;;;;;;21.42;3.97;;;9.20;99.90;;;;;;5121223;27;20039;-79
2023/12/11 00:05:17;;;;;;;23.65;4.50;;;9.10;99.90;;;;;;5095360;28;20036;-77
2023/12/11 00:07:43;;;;;;;22.95;4.20;;;9.00;99.90;;;;;;5111996;28;20491;-78
2023/12/11 00:10:09;;;;;;;24.05;5.25;;;9.00;99.90;;;;;;5095166;28;20505;-78
2023/12/11 00:12:36;;;;;;;15.60;3.05;;;8.90;99.90;;;;;;5094326;28;20048;-78
2023/12/11 00:15:02;;;;;;;21.63;4.07;;;8.90;99.90;;;;;;5111926;28;20053;-78
2023/12/11 00:17:28;;;;;;;24.10;4.07;;;8.90;99.90;;;;;;5100949;27;20500;-77
2023/12/11 00:19:54;;;;;;;27.63;4.50;;;8.80;99.90;;;;;;5125906;27;20044;-78
2023/12/11 00:22:20;;;;;;;23.63;4.30;;;8.80;99.90;;;;;;5131388;27;20043;-78
2023/12/11 00:24:46;;;;;;;27.73;4.45;;;8.80;99.90;;;;;;5090656;28;20115;-78
2023/12/11 00:27:11;;;;;;;27.23;4.55;;;8.80;99.90;;;;;;5083364;27;20079;-78
2023/12/11 00:29:38;;;;;;;25.85;4.63;;;8.80;99.90;;;;;;5109226;28;20126;-78
2023/12/11 00:32:04;;;;;;;38.20;5.15;;;8.80;99.90;;;;;;5078063;27;20052;-77
2023/12/11 00:34:31;;;;;;;26.15;4.30;;;8.90;99.90;;;;;;5096484;28;20085;-78
2023/12/11 00:36:57;;;;;;;30.75;5.57;;;8.90;99.90;;;;;;5140158;27;20081;-77
2023/12/11 00:39:22;;;;;;;24.75;4.63;;;8.90;99.90;;;;;;5111952;27;20428;-78
2023/12/11 00:41:48;;;;;;;34.30;4.93;;;8.90;99.90;;;;;;5112384;27;20040;-77
2023/12/11 00:44:14;;;;;;;33.15;5.72;;;8.90;99.90;;;;;;5121007;27;20130;-78
2023/12/11 00:46:40;;;;;;;34.10;5.07;;;9.00;99.90;;;;;;5115041;27;20770;-78
2023/12/11 00:49:06;;;;;;;38.33;6.07;;;9.10;99.90;;;;;;5123593;27;20067;-78
2023/12/11 00:51:31;;;;;;;38.25;5.28;;;9.10;99.90;;;;;;5095112;27;20397;-77
2023/12/11 00:53:57;;;;;;;33.90;5.75;;;9.10;99.90;;;;;;5104654;27;20465;-77
2023/12/11 00:56:23;;;;;;;34.45;5.60;;;9.10;99.90;;;;;;5140915;27;20494;-78
2023/12/11 00:58:48;;;;;;;36.45;5.47;;;9.10;99.90;;;;;;5097234;27;20095;-78
2023/12/11 01:01:14;;;;;;;39.80;6.35;;;9.20;99.90;;;;;;5093845;28;20043;-78
2023/12/11 01:03:40;;;;;;;40.78;5.55;;;9.10;99.90;;;;;;5102187;27;20549;-78
2023/12/11 01:06:06;;;;;;;33.08;4.90;;;9.10;99.90;;;;;;5090974;28;20486;-78
2023/12/11 01:08:33;;;;;;;32.85;5.13;;;9.10;99.90;;;;;;5090952;28;20047;-78
2023/12/11 01:10:59;;;;;;;33.05;5.47;;;9.20;99.90;;;;;;5092650;28;20532;-78
2023/12/11 01:13:25;;;;;;;31.63;5.43;;;9.10;99.90;;;;;;5111040;27;20067;-78
2023/12/11 01:15:51;;;;;;;;;;;9.20;99.90;;;;;;5094236;28;20051;-78
2023/12/11 01:18:16;;;;;;;27.33;4.82;;;9.20;99.90;;;;;;5110315;28;20648;-78
2023/12/11 01:20:42;;;;;;;39.65;6.82;;;9.20;99.90;;;;;;5094000;28;20054;-78
2023/12/11 01:23:09;;;;;;;35.15;5.93;;;9.20;99.90;;;;;;5081564;28;20063;-78
2023/12/11 01:25:34;;;;;;;35.05;5.57;;;9.40;99.90;;;;;;5117968;27;20051;-78
2023/12/11 01:28:00;;;;;;;35.30;5.35;;;9.40;99.90;;;;;;5067983;28;20042;-78
2023/12/11 01:30:26;;;;;;;30.63;4.70;;;9.30;99.90;;;;;;5093245;28;20051;-78
2023/12/11 01:32:51;;;;;;;31.27;4.97;;;9.40;99.90;;;;;;5090381;28;20134;-79
2023/12/11 01:35:17;;;;;;;33.08;5.60;;;9.30;99.90;;;;;;5059880;28;20040;-79
2023/12/11 01:37:43;;;;;;;27.63;4.63;;;9.30;99.90;;;;;;5077679;28;20046;-78
2023/12/11 01:40:10;;;;;;;28.38;5.38;;;9.30;99.90;;;;;;5087484;27;20046;-79
2023/12/11 01:42:36;;;;;;;34.50;5.43;;;9.30;99.90;;;;;;5079651;28;20137;-78
2023/12/11 01:45:02;;;;;;;28.35;5.43;;;9.20;99.90;;;;;;5115048;27;20111;-78
2023/12/11 01:47:28;;;;;;;32.63;6.03;;;9.20;99.90;;;;;;5086421;28;20043;-78
2023/12/11 01:49:54;;;;;;;34.65;4.90;;;9.20;99.90;;;;;;5094364;28;20043;-78
2023/12/11 01:52:20;;;;;;;33.83;5.25;;;9.20;99.90;;;;;;5108551;28;20031;-78
2023/12/11 01:54:46;;;;;;;32.45;5.32;;;9.20;99.90;;;;;;5111099;28;20047;-77
2023/12/11 01:57:13;;;;;;;31.10;5.22;;;9.30;99.90;;;;;;5087203;28;20407;-78
2023/12/11 01:59:39;;;;;;;31.20;5.38;;;9.30;99.90;;;;;;5082558;28;20460;-78
2023/12/11 02:02:05;;;;;;;32.38;6.43;;;9.30;99.90;;;;;;5113193;28;20122;-78
2023/12/11 02:04:31;;;;;;;31.85;4.95;;;9.20;99.90;;;;;;5094347;28;20122;-78
2023/12/11 02:06:57;;;;;;;30.10;5.38;;;9.30;99.90;;;;;;5103192;28;20388;-79
2023/12/11 02:09:23;;;;;;;;;;;9.30;99.90;;;;;;5104256;28;20099;-79
2023/12/11 02:11:50;;;;;;;24.60;4.30;;;9.30;99.90;;;;;;5111063;28;19920;-80
2023/12/11 02:14:15;;;;;;;24.35;4.43;;;9.30;99.90;;;;;;5095262;28;20066;-79
2023/12/11 02:16:41;;;;;;;29.85;4.82;;;9.20;99.90;;;;;;5099172;28;20549;-77
2023/12/11 02:19:07;;;;;;;25.98;4.38;;;9.10;99.90;;;;;;5077905;28;20055;-77
2023/12/11 02:21:33;;;;;;;30.80;5.35;;;9.20;99.90;;;;;;5105878;28;20108;-78
2023/12/11 02:24:05;;;;;;;36.95;5.47;;;9.20;99.90;;;;;;5118046;28;20071;-78
2023/12/11 02:26:31;;;;;;;34.47;5.47;;;9.20;99.90;;;;;;5118315;28;20058;-78
2023/12/11 02:28:56;;;;;;;23.75;3.88;;;9.20;99.90;;;;;;5108503;28;20437;-78
2023/12/11 02:31:22;;;;;;;30.13;5.72;;;9.10;99.90;;;;;;5086926;28;20039;-77
2023/12/11 02:33:48;;;;;;;35.92;5.05;;;9.10;99.90;;;;;;5064225;28;20079;-77
2023/12/11 02:36:14;;;;;;;29.13;4.80;;;9.10;99.90;;;;;;5076021;28;20443;-78
2023/12/11 02:38:39;;;;;;;35.85;5.65;;;9.10;99.90;;;;;;5094950;28;20054;-78
2023/12/11 02:41:05;;;;;;;33.80;5.10;;;9.20;99.90;;;;;;5113770;28;20048;-77
2023/12/11 02:43:31;;;;;;;40.08;5.60;;;9.10;99.90;;;;;;5103564;28;20063;-77
2023/12/11 02:45:57;;;;;;;24.67;4.32;;;9.10;99.90;;;;;;5095436;28;20032;-77
2023/12/11 02:48:22;;;;;;;39.38;5.47;;;9.20;99.90;;;;;;5104397;28;20127;-77
2023/12/11 02:50:48;;;;;;;28.15;4.82;;;9.30;99.90;;;;;;5119544;28;20040;-77
2023/12/11 02:53:14;;;;;;;38.40;5.80;;;9.30;99.90;;;;;;5105054;28;20043;-77
2023/12/11 02:55:40;;;;;;;43.03;6.65;;;9.30;99.90;;;;;;5092749;28;20130;-77
2023/12/11 02:58:05;;;;;;;33.00;5.75;;;9.30;99.90;;;;;;5083024;28;20119;-77
2023/12/11 03:00:31;;;;;;;43.97;6.32;;;9.30;99.90;;;;;;5098214;28;20043;-78
2023/12/11 03:02:57;;;;;;;35.05;5.50;;;9.40;99.90;;;;;;5097120;27;20428;-77
2023/12/11 03:05:23;;;;;;;39.22;6.55;;;9.40;99.90;;;;;;5098710;27;20031;-77
2023/12/11 03:07:49;;;;;;;36.25;6.00;;;9.30;99.90;;;;;;5096258;28;20108;-78
2023/12/11 03:10:15;;;;;;;38.40;5.57;;;9.40;99.90;;;;;;5112474;28;20490;-77
2023/12/11 03:12:41;;;;;;;35.72;5.45;;;9.40;99.90;;;;;;5113397;27;20082;-77
2023/12/11 03:15:08;;;;;;;26.63;5.57;;;9.40;99.90;;;;;;5108138;28;20094;-77
2023/12/11 03:17:34;;;;;;;33.88;6.32;;;9.40;99.90;;;;;;5111088;27;20514;-77
2023/12/11 03:20:00;;;;;;;38.55;6.63;;;9.40;99.90;;;;;;5073580;28;20117;-77
2023/12/11 03:22:26;;;;;;;36.75;6.38;;;9.30;99.90;;;;;;5119451;27;20491;-78
2023/12/11 03:24:52;;;;;;;;;;;9.30;99.90;;;;;;5096280;28;20039;-78
2023/12/11 03:27:21;;;;;;;43.13;6.90;;;9.40;99.90;;;;;;5096952;28;19966;-78
2023/12/11 03:29:48;;;;;;;42.63;6.80;;;9.40;99.90;;;;;;5134271;27;20503;-78
2023/12/11 03:32:14;;;;;;;43.72;6.32;;;9.40;99.90;;;;;;5117475;27;20057;-79
2023/12/11 03:34:40;;;;;;;35.60;6.10;;;9.40;99.90;;;;;;5111237;28;20052;-78
2023/12/11 03:37:06;;;;;;;42.03;5.65;;;9.30;99.90;;;;;;5118392;27;20048;-78
2023/12/11 03:39:32;;;;;;;37.78;5.93;;;9.50;99.90;;;;;;5109773;28;20083;-78
2023/12/11 03:41:58;;;;;;;34.20;5.88;;;9.40;99.90;;;;;;5108058;27;20371;-78
2023/12/11 03:44:24;;;;;;;44.50;6.43;;;9.40;99.90;;;;;;5084950;28;20039;-79
2023/12/11 03:46:50;;;;;;;38.88;6.65;;;9.40;99.90;;;;;;5081435;27;20039;-77
2023/12/11 03:49:18;;;;;;;35.97;6.03;;;9.50;99.90;;;;;;5066743;28;20042;-78
2023/12/11 03:51:44;;;;;;;36.08;5.15;;;9.60;99.90;;;;;;5120166;27;20058;-78
2023/12/11 03:54:10;;;;;;;38.97;5.57;;;9.50;99.90;;;;;;5105475;28;20044;-78
2023/12/11 03:56:36;;;;;;;33.65;5.20;;;9.50;99.90;;;;;;5120947;27;20398;-78
2023/12/11 03:59:01;;;;;;;45.47;7.82;;;9.60;99.90;;;;;;5115190;27;20109;-78
2023/12/11 04:01:27;;;;;;;40.25;5.72;;;9.50;99.90;;;;;;5090619;27;20461;-78
2023/12/11 04:03:54;;;;;;;30.42;4.97;;;9.60;99.90;;;;;;5110257;28;20036;-78
2023/12/11 04:06:19;;;;;;;46.22;7.45;;;9.50;99.90;;;;;;5146415;27;20483;-78
2023/12/11 04:08:45;;;;;;;42.90;5.60;;;9.50;99.90;;;;;;5087863;28;20044;-78
2023/12/11 04:11:12;;;;;;;47.80;6.97;;;9.60;99.90;;;;;;5095221;28;20074;-78
2023/12/11 04:13:38;;;;;;;40.58;7.53;;;9.60;99.90;;;;;;5126209;27;20436;-78
2023/12/11 04:16:04;;;;;;;33.25;5.18;;;9.50;99.90;;;;;;5129136;27;20043;-78
2023/12/11 04:18:30;;;;;;;;;;;9.50;99.90;;;;;;5101849;28;20115;-78
2023/12/11 04:20:57;;;;;;;37.20;6.13;;;9.50;99.90;;;;;;5117963;27;19943;-78
2023/12/11 04:23:23;;;;;;;43.80;6.60;;;9.50;99.90;;;;;;5108390;27;20134;-78
2023/12/11 04:25:48;;;;;;;34.88;6.53;;;9.60;99.90;;;;;;5102839;28;20151;-77
2023/12/11 04:28:14;;;;;;;39.70;6.68;;;9.60;99.90;;;;;;5124705;27;20482;-78
2023/12/11 04:30:40;;;;;;;51.88;7.93;;;9.60;99.90;;;;;;5112183;27;20046;-79
2023/12/11 04:33:06;;;;;;;41.50;6.32;;;9.60;99.90;;;;;;5078821;28;20407;-78
2023/12/11 04:35:31;;;;;;;37.67;5.93;;;9.60;99.90;;;;;;5112064;27;20043;-78
2023/12/11 04:37:57;;;;;;;40.47;6.47;;;9.60;99.90;;;;;;5068456;28;20082;-78
2023/12/11 04:40:23;;;;;;;38.75;6.93;;;9.60;99.90;;;;;;5110196;27;20023;-78
2023/12/11 04:42:48;;;;;;;40.22;6.80;;;9.50;99.90;;;;;;5074886;28;20577;-79
2023/12/11 04:45:14;;;;;;;37.00;5.28;;;9.50;99.90;;;;;;5106100;28;20051;-79
2023/12/11 04:47:40;;;;;;;33.53;5.38;;;9.60;99.90;;;;;;5128469;27;20043;-79
2023/12/11 04:50:06;;;;;;;44.40;6.45;;;9.50;99.90;;;;;;5092696;28;20040;-78
2023/12/11 04:52:31;;;;;;;36.90;6.45;;;9.50;99.90;;;;;;5098662;28;20046;-79
2023/12/11 04:54:57;;;;;;;30.92;5.15;;;9.50;99.90;;;;;;5053187;28;20052;-79
2023/12/11 04:57:23;;;;;;;32.67;6.22;;;9.50;99.90;;;;;;5085826;28;20032;-77
2023/12/11 04:59:49;;;;;;;27.25;4.50;;;9.50;99.90;;;;;;5101423;27;20137;-77
2023/12/11 05:02:15;;;;;;;31.10;5.53;;;9.50;99.90;;;;;;5105583;27;20032;-78
2023/12/11 05:04:40;;;;;;;35.63;5.97;;;9.50;99.90;;;;;;5096307;27;20067;-77
2023/12/11 05:07:06;;;;;;;25.95;4.65;;;9.40;99.90;;;;;;5095743;28;20044;-77
2023/12/11 05:09:32;;;;;;;34.90;5.68;;;9.40;99.90;;;;;;5104620;28;20043;-77
2023/12/11 05:11:58;;;;;;;30.02;4.43;;;9.40;99.90;;;;;;5106601;28;20044;-77
2023/12/11 05:14:26;;;;;;;26.38;4.82;;;9.40;99.90;;;;;;5109153;28;20035;-77
2023/12/11 05:16:52;;;;;;;34.80;5.78;;;9.40;99.90;;;;;;5092601;28;20044;-77
2023/12/11 05:19:18;;;;;;;30.73;6.05;;;9.40;99.90;;;;;;5108842;28;20525;-78
2023/12/11 05:21:44;;;;;;;36.53;5.80;;;9.40;99.90;;;;;;5091651;28;20126;-78
2023/12/11 05:24:11;;;;;;;;;;;9.40;99.90;;;;;;5092891;28;20035;-79
2023/12/11 05:26:37;;;;;;;42.25;5.38;;;9.30;99.90;;;;;;5097206;27;20364;-79
2023/12/11 05:29:04;;;;;;;30.08;5.50;;;9.40;99.90;;;;;;5085244;28;20039;-79
2023/12/11 05:31:30;;;;;;;25.83;4.38;;;9.40;99.90;;;;;;5137690;27;20053;-77
2023/12/11 05:33:56;;;;;;;34.03;5.82;;;9.40;99.90;;;;;;5124248;27;20064;-77
2023/12/11 05:36:22;;;;;;;33.00;4.75;;;9.50;99.90;;;;;;5092672;28;20036;-77
2023/12/11 05:38:48;;;;;;;28.45;4.75;;;9.50;99.90;;;;;;5107979;28;20474;-78
2023/12/11 05:41:13;;;;;;;29.95;4.97;;;9.50;99.90;;;;;;5093337;27;20050;-78
2023/12/11 05:43:39;;;;;;;22.77;4.35;;;9.50;99.90;;;;;;5094940;28;20054;-78
2023/12/11 05:46:06;;;;;;;28.50;4.60;;;9.50;99.90;;;;;;5064319;28;20100;-78
2023/12/11 05:48:32;;;;;;;35.22;5.43;;;9.50;99.90;;;;;;5120609;28;20036;-78
2023/12/11 05:50:58;;;;;;;26.52;4.88;;;9.50;99.90;;;;;;5099749;28;20047;-80
2023/12/11 05:53:23;;;;;;;28.05;4.28;;;9.50;99.90;;;;;;5103053;28;20031;-79
2023/12/11 05:55:49;;;;;;;32.67;5.28;;;9.50;99.90;;;;;;5101349;28;20047;-78
2023/12/11 05:58:15;;;;;;;25.60;4.28;;;9.50;99.90;;;;;;5098265;28;20088;-79
2023/12/11 06:00:41;;;;;;;32.85;5.93;;;9.40;99.90;;;;;;5110407;28;20036;-80
2023/12/11 06:03:07;;;;;;;23.42;4.35;;;9.40;99.90;;;;;;5105593;28;20031;-80
2023/12/11 06:05:33;;;;;;;34.10;4.80;;;9.40;99.90;;;;;;5086308;28;20366;-79
2023/12/11 06:07:58;;;;;;;30.33;4.93;;;9.40;99.90;;;;;;5085276;28;20467;-79
2023/12/11 06:10:24;;;;;;;28.77;5.13;;;9.30;99.90;;;;;;5123796;28;20136;-79
2023/12/11 06:12:50;;;;;;;23.65;3.85;;;9.30;99.90;;;;;;5090347;28;20106;-79
2023/12/11 06:15:16;;;;;;;21.98;3.83;;;9.30;99.90;;;;;;5088957;28;20118;-79
2023/12/11 06:17:41;;;;;;;28.92;4.00;;;9.30;99.90;;;;;;5127408;27;20044;-79
2023/12/11 06:20:07;;;;;;;29.17;4.47;;;9.30;99.90;;;;;;5075685;28;20058;-79
2023/12/11 06:22:33;;;;;;;25.48;4.25;;;9.30;99.90;;;;;;5113534;28;20035;-79
2023/12/11 06:24:59;;;;;;;31.27;4.78;;;9.30;99.90;;;;;;5115445;28;20047;-78
2023/12/11 06:27:27;;;;;;;26.23;4.20;;;9.30;99.90;;;;;;5077784;28;20039;-77
2023/12/11 06:29:53;;;;;;;34.97;5.20;;;9.20;99.90;;;;;;5109972;28;20508;-75
2023/12/11 06:32:19;;;;;;;26.83;4.78;;;9.20;99.90;;;;;;5110862;28;20059;-76
2023/12/11 06:34:45;;;;;;;35.63;5.60;;;9.20;99.90;;;;;;5110237;28;20051;-75
2023/12/11 06:37:10;;;;;;;25.52;4.90;;;9.20;99.90;;;;;;5095736;28;20043;-76
2023/12/11 06:39:36;;;;;;;31.25;4.38;;;9.20;99.90;;;;;;5113473;28;20035;-75
2023/12/11 06:42:02;;;;;;;24.33;4.15;;;9.20;99.90;;;;;;5096581;28;20116;-75
2023/12/11 06:44:28;;;;;;;27.92;4.40;;;9.20;99.90;;;;;;5113142;28;20035;-75
2023/12/11 06:46:54;;;;;;;30.92;4.72;;;9.20;99.90;;;;;;5114280;27;20058;-75
2023/12/11 06:49:20;;;;;;;26.75;4.03;;;9.20;99.90;;;;;;5113346;28;20035;-79
2023/12/11 06:51:45;;;;;;;24.20;3.58;;;9.20;99.90;;;;;;5096544;28;20043;-80
2023/12/11 06:54:11;;;;;;;23.35;4.68;;;9.10;99.90;;;;;;5095930;28;20031;-81
2023/12/11 06:56:37;;;;;;;24.23;3.47;;;9.10;99.90;;;;;;5080211;28;20123;-81
2023/12/11 06:59:03;;;;;;;30.02;4.50;;;9.10;99.90;;;;;;5107671;27;20126;-81
2023/12/11 07:01:30;;;;;;;26.48;4.18;;;9.20;99.90;;;;;;5124774;27;20114;-80
2023/12/11 07:03:56;;;;;;;18.48;3.03;;;9.10;99.90;;;;;;5104127;27;20115;-82
2023/12/11 07:06:22;;;;;;;27.52;4.65;;;9.10;99.90;;;;;;5121755;27;20118;-79
2023/12/11 07:08:47;;;;;;;24.90;4.00;;;9.10;99.90;;;;;;5103771;27;20502;-79
2023/12/11 07:11:13;;;;;;;25.63;5.13;;;9.10;99.90;;;;;;5100843;28;20035;-81
2023/12/11 07:13:42;;;;;;;32.88;4.38;;;9.10;99.90;;;;;;5122669;27;20051;-79
2023/12/11 07:16:08;;;;;;;23.75;4.32;;;9.10;99.90;;;;;;5095563;28;20044;-81
2023/12/11 07:18:34;;;;;;;19.63;3.35;;;9.10;99.90;;;;;;5113830;28;20035;-81
2023/12/11 07:21:00;;;;;;;19.88;4.05;;;9.10;99.90;;;;;;5096591;28;20108;-81
2023/12/11 07:23:25;;;;;;;24.20;3.42;;;9.10;99.90;;;;;;5112744;28;20360;-81
2023/12/11 07:25:51;;;;;;;19.85;3.45;;;9.20;99.90;;;;;;5094138;28;20487;-81
2023/12/11 07:28:17;;;;;;;22.30;3.42;;;9.10;99.90;;;;;;5095887;28;20097;-81
2023/12/11 07:30:42;;;;;;;15.43;3.22;;;9.10;99.90;;;;;;5112594;28;20572;-81
2023/12/11 07:33:08;;;;;;;20.10;3.00;;;9.20;99.90;;;;;;5095511;28;20047;-81
2023/12/11 07:35:35;;;;;;;21.48;3.50;;;9.10;99.90;;;;;;5112662;28;20406;-81
2023/12/11 07:38:02;;;;;;;21.55;3.35;;;9.20;99.90;;;;;;5113186;28;20044;-81
2023/12/11 07:40:28;;;;;;;14.32;2.85;;;9.20;99.90;;;;;;5095966;28;20043;-81
2023/12/11 07:42:54;;;;;;;17.52;3.65;;;9.10;99.90;;;;;;5112748;28;20044;-81
2023/12/11 07:45:24;;;;;;;11.25;2.42;;;9.10;99.90;;;;;;5112578;28;20046;-81
2023/12/11 07:47:49;;;;;;;20.55;3.22;;;9.10;99.90;;;;;;5111708;28;20548;-81
2023/12/11 07:50:16;;;;;;;12.90;2.40;;;9.10;99.90;;;;;;5095647;28;20044;-81
2023/12/11 07:52:41;;;;;;;;;;;9.10;99.90;;;;;;5113218;28;20075;-81
2023/12/11 07:55:07;;;;;;;15.25;2.55;;;9.10;99.90;;;;;;5111121;28;19977;-82
2023/12/11 07:57:33;;;;;;;12.43;2.78;;;9.10;99.90;;;;;;5112444;28;20135;-81
2023/12/11 07:59:59;;;;;;;16.17;2.83;;;9.10;99.90;;;;;;5093792;28;20043;-82
2023/12/11 08:02:25;;;;;;;16.77;2.92;;;9.10;99.90;;;;;;5095035;28;20075;-81
2023/12/11 08:04:51;;;;;;;17.95;3.28;;;9.10;99.90;;;;;;5111666;28;20047;-80
2023/12/11 08:07:18;;;;;;;11.10;2.20;;;9.10;99.90;;;;;;5111982;28;20051;-81
2023/12/11 08:09:44;;;;;;;17.75;3.15;;;9.20;99.90;;;;;;5095474;28;20047;-81
2023/12/11 08:12:09;;;;;;;15.50;2.70;;;9.20;99.90;;;;;;5095263;28;20505;-81
2023/12/11 08:14:35;;;;;;;15.65;3.03;;;9.10;99.90;;;;;;5112216;28;20051;-81
2023/12/11 08:17:01;;;;;;;12.70;2.63;;;9.20;99.90;;;;;;5111930;28;20043;-81
2023/12/11 08:19:26;;;;;;;10.35;2.10;;;9.20;99.90;;;;;;5111952;28;20039;-81
2023/12/11 08:21:55;;;;;;;9.60;1.90;;;9.10;99.90;;;;;;5078153;28;20051;-81
2023/12/11 08:24:20;;;;;;;12.18;2.13;;;9.20;99.90;;;;;;5111809;28;20051;-81
2023/12/11 08:26:46;;;;;;;16.98;3.20;;;9.20;99.90;;;;;;5111474;28;20043;-81
2023/12/11 08:29:12;;;;;;;10.85;2.10;;;9.10;99.90;;;;;;5094626;28;20046;-81
2023/12/11 08:31:38;;;;;;;10.10;2.20;;;9.10;99.90;;;;;;5111768;28;20044;-81
2023/12/11 08:34:04;;;;;;;9.98;2.00;;;9.10;99.90;;;;;;5111086;28;20063;-82
2023/12/11 08:36:30;;;;;;;9.35;1.67;;;9.10;99.90;;;;;;5111402;28;20048;-81
2023/12/11 08:38:55;;;;;;;10.05;2.47;;;9.10;99.90;;;;;;5094832;28;20126;-81
2023/12/11 08:41:21;;;;;;;10.25;2.38;;;9.10;99.90;;;;;;5111530;28;20490;-81
2023/12/11 08:43:47;;;;;;;8.90;2.03;;;9.10;99.90;;;;;;5111270;28;20092;-81
2023/12/11 08:46:13;;;;;;;12.43;2.58;;;9.10;99.90;;;;;;5111610;28;20394;-81
2023/12/11 08:48:39;;;;;;;10.52;2.65;;;9.10;99.90;;;;;;5094267;28;20127;-81
2023/12/11 08:51:05;;;;;;;9.10;2.10;;;9.10;99.90;;;;;;5094288;28;20090;-81
2023/12/11 08:53:31;;;;;;;11.25;2.65;;;9.00;99.90;;;;;;5094216;28;20047;-80
2023/12/11 08:55:57;;;;;;;9.65;2.17;;;9.00;99.90;;;;;;5076187;28;20073;-81
2023/12/11 08:58:24;;;;;;;9.55;2.33;;;9.10;99.90;;;;;;5093357;28;20043;-81
2023/12/11 09:00:50;;;;;;;12.65;2.53;;;9.00;99.90;;;;;;5092736;28;20118;-80
2023/12/11 09:03:16;;;;;;;12.55;2.70;;;9.20;99.90;;;;;;5093746;28;20040;-80
2023/12/11 09:05:41;;;;;;;12.02;2.80;;;9.20;99.90;;;;;;5110370;28;20046;-80
2023/12/11 09:08:07;;;;;;;8.35;2.58;;;9.20;99.90;;;;;;5111010;28;20057;-80
2023/12/11 09:10:35;;;;;;;11.75;2.40;;;9.20;99.90;;;;;;5110726;28;20044;-80
2023/12/11 09:13:02;;;;;;;15.05;2.90;;;9.20;99.90;;;;;;5111280;28;20039;-80
2023/12/11 09:15:28;;;;;;;14.07;2.70;;;9.20;99.90;;;;;;5110808;28;20122;-80
2023/12/11 09:17:54;;;;;;;12.48;2.92;;;9.20;99.90;;;;;;5093803;28;20543;-80
2023/12/11 09:20:20;;;;;;;14.45;2.97;;;9.20;99.90;;;;;;5094209;28;20039;-80
2023/12/11 09:22:46;;;;;;;12.90;3.03;;;9.20;99.90;;;;;;5110463;28;20149;-80
2023/12/11 09:25:12;;;;;;;12.32;2.63;;;9.10;99.90;;;;;;5094034;28;20043;-80
2023/12/11 09:27:38;;;;;;;13.25;2.92;;;9.20;99.90;;;;;;5111045;28;20043;-80
2023/12/11 09:30:06;;;;;;;16.58;3.65;;;9.20;99.90;;;;;;5093418;28;20050;-80
2023/12/11 09:32:32;;;;;;;12.20;2.55;;;9.30;99.90;;;;;;5110719;28;20071;-80
2023/12/11 09:34:57;;;;;;;13.55;3.17;;;9.30;99.90;;;;;;5093997;28;20503;-81
2023/12/11 09:37:23;;;;;;;16.40;3.45;;;9.20;99.90;;;;;;5110305;28;20040;-80
2023/12/11 09:39:49;;;;;;;10.05;2.28;;;9.20;99.90;;;;;;5110561;28;20043;-80
2023/12/11 09:42:15;;;;;;;19.17;3.28;;;9.30;99.90;;;;;;5093585;28;20035;-80
2023/12/11 09:44:45;;;;;;;;;;;9.30;99.90;;;;;;5094293;28;20097;-80
2023/12/11 09:47:17;;;;;;;17.30;3.22;;;9.30;99.90;;;;;;5110591;28;19920;-81
2023/12/11 09:49:45;;;;;;;18.88;3.53;;;9.20;99.90;;;;;;5110498;28;20043;-80
2023/12/11 09:52:13;;;;;;;14.30;3.20;;;9.40;99.90;;;;;;5110230;28;20079;-80
2023/12/11 09:54:39;;;;;;;15.82;3.40;;;9.30;99.90;;;;;;5110312;28;20059;-80
2023/12/11 09:57:09;;;;;;;19.10;3.80;;;9.40;99.90;;;;;;5108929;28;20144;-80
2023/12/11 09:59:35;;;;;;;14.73;3.30;;;9.40;99.90;;;;;;5109791;28;20122;-80
2023/12/11 10:02:03;;;;;;;11.18;2.88;;;9.40;99.90;;;;;;5092260;28;20050;-80
2023/12/11 10:04:29;;;;;;;19.42;3.33;;;9.30;99.90;;;;;;5109988;28;20039;-80
2023/12/11 10:06:55;;;;;;;13.75;2.90;;;9.30;99.90;;;;;;5109388;28;20052;-81
2023/12/11 10:09:34;;;;;;;19.13;3.33;;;9.50;99.90;;;;;;5110152;28;20047;-81
2023/12/11 10:12:02;;;;;;;14.43;2.97;;;9.50;99.90;;;;;;5079790;28;20039;-81
2023/12/11 10:14:31;;;;;;;20.10;3.10;;;9.60;99.90;;;;;;5097681;28;20165;-81
2023/12/11 10:16:58;;;;;;;16.55;2.53;;;9.50;99.90;;;;;;5114454;28;20390;-80
2023/12/11 10:19:33;;;;;;;14.30;2.83;;;9.50;99.90;;;;;;5114401;28;20057;-82
2023/12/11 10:22:03;;;;;;;11.90;2.00;;;9.60;99.90;;;;;;5114217;28;20044;-80
2023/12/11 10:24:29;;;;;;;9.93;2.03;;;9.50;99.90;;;;;;5114116;28;20043;-80
2023/12/11 10:26:55;;;;;;;;;;;9.40;99.90;;;;;;5097817;28;20459;-80
2023/12/11 10:29:23;;;;;;;9.88;1.65;;;9.30;99.90;;;;;;5096966;28;19923;-79
2023/12/11 10:31:51;;;;;;;10.57;2.20;;;9.40;99.90;;;;;;5114398;28;20035;-80
2023/12/11 10:34:16;;;;;;;12.18;2.17;;;9.20;99.90;;;;;;5114605;28;20130;-80
2023/12/11 10:36:52;;;;;;;12.77;2.22;;;9.30;99.90;;;;;;5115045;28;20492;-81
2023/12/11 10:39:22;;;;;;;11.32;2.40;;;9.20;99.90;;;;;;5098163;28;20047;-82
2023/12/11 10:41:47;;;;;;;14.90;2.75;;;9.30;99.90;;;;;;5097692;28;20039;-80
2023/12/11 10:44:24;;;;;;;13.23;2.25;;;9.30;99.90;;;;;;5114384;28;20044;-82
2023/12/11 10:46:56;;;;;;;16.25;2.75;;;9.40;99.90;;;;;;5114285;28;20088;-81
2023/12/11 10:49:25;;;;;;;16.77;2.83;;;9.60;99.90;;;;;;5096907;28;20079;-81
2023/12/11 10:51:51;;;;;;;12.20;2.38;;;9.60;99.90;;;;;;5080006;28;20087;-81
2023/12/11 10:54:18;;;;;;;14.25;2.67;;;9.60;99.90;;;;;;5114427;28;20082;-81
2023/12/11 10:56:47;;;;;;;21.20;3.25;;;9.50;99.90;;;;;;5114097;28;20046;-81
2023/12/11 10:59:13;;;;;;;15.18;2.60;;;9.50;99.90;;;;;;5112670;28;20050;-81
2023/12/11 11:01:44;;;;;;;20.23;3.20;;;9.50;99.90;;;;;;5096340;28;20122;-82
2023/12/11 11:04:12;;;;;;;25.13;2.80;;;9.50;99.90;;;;;;5112561;28;20051;-81
2023/12/11 11:06:47;;;;;;;23.58;3.67;;;9.50;99.90;;;;;;5113313;28;20075;-82
2023/12/11 11:09:19;;;;;;;17.45;2.78;;;9.60;99.90;;;;;;5113170;28;20053;-82
2023/12/11 11:11:52;;;;;;;15.77;3.28;;;9.60;99.90;;;;;;5096393;28;20575;-81
2023/12/11 11:14:37;;;;;;;13.23;2.90;;;9.60;99.90;;;;;;5113349;28;20039;-81
2023/12/11 11:17:02;;;;;;;14.70;2.33;;;9.60;99.90;;;;;;5112921;28;20048;-81
2023/12/11 11:19:29;;;;;;;15.70;3.38;;;9.50;99.90;;;;;;5095832;28;20035;-82
2023/12/11 11:22:03;;;;;;;16.83;2.78;;;9.50;99.90;;;;;;5112258;28;20108;-81
2023/12/11 11:24:30;;;;;;;18.20;2.80;;;9.60;99.90;;;;;;5113823;28;20039;-81
2023/12/11 11:26:56;;;;;;;17.88;3.05;;;9.60;99.90;;;;;;5113967;28;20048;-82
2023/12/11 11:29:41;;;;;;;;;;;9.60;99.90;;;;;;5114024;28;20075;-80
2023/12/11 11:32:08;;;;;;;15.95;2.90;;;9.70;99.90;;;;;;5113304;28;19926;-81
2023/12/11 11:34:40;;;;;;;14.63;2.17;;;9.60;99.90;;;;;;5096289;28;20065;-81
2023/12/11 11:37:12;;;;;;;10.45;2.05;;;9.60;99.90;;;;;;5113817;28;20082;-81
2023/12/11 11:39:59;;;;;;;12.40;1.85;;;9.60;99.90;;;;;;5113975;28;20043;-81
2023/12/11 11:42:25;;;;;;;9.65;1.50;;;9.50;99.90;;;;;;5114271;28;20044;-81
2023/12/11 11:44:56;;;;;;;10.13;2.38;;;9.50;99.90;;;;;;5113141;28;20071;-81
2023/12/11 11:47:22;;;;;;;9.60;1.80;;;9.40;99.90;;;;;;5095508;28;20568;-81
2023/12/11 11:49:48;;;;;;;13.82;1.95;;;9.40;99.90;;;;;;5112736;28;20047;-81
2023/12/11 11:52:19;;;;;;;9.20;1.58;;;9.40;99.90;;;;;;5112706;28;20474;-81
2023/12/11 11:54:44;;;;;;;10.75;1.63;;;9.40;99.90;;;;;;5112339;28;20043;-80
2023/12/11 11:57:10;;;;;;;10.27;1.45;;;9.40;99.90;;;;;;5112315;28;20050;-81
2023/12/11 11:59:45;;;;;;;14.48;2.38;;;9.40;99.90;;;;;;5110753;28;20114;-76
2023/12/11 12:02:11;;;;;;;8.63;1.58;;;9.40;99.90;;;;;;5111648;28;20040;-76
2023/12/11 12:04:37;;;;;;;9.27;1.80;;;9.40;99.90;;;;;;5093951;28;20050;-76
2023/12/11 12:07:04;;;;;;;9.63;1.80;;;9.40;99.90;;;;;;5093467;28;20115;-77
2023/12/11 12:09:31;;;;;;;6.85;1.30;;;9.40;99.90;;;;;;5094605;28;20047;-76
2023/12/11 12:11:58;;;;;;;6.93;1.58;;;9.40;99.90;;;;;;5111474;28;20048;-76
2023/12/11 12:14:25;;;;;;;8.30;1.50;;;9.40;99.90;;;;;;5111691;28;20048;-76
2023/12/11 12:16:52;;;;;;;7.70;1.13;;;9.40;99.90;;;;;;5111318;28;20051;-76
2023/12/11 12:19:30;;;;;;;7.90;1.50;;;9.40;99.90;;;;;;5111620;28;20043;-76
2023/12/11 12:21:55;;;;;;;9.65;1.90;;;9.50;99.90;;;;;;5094764;28;20058;-76
2023/12/11 12:24:22;;;;;;;13.77;2.10;;;9.50;99.90;;;;;;5094475;28;20047;-76
2023/12/11 12:27:09;;;;;;;14.52;2.70;;;9.50;99.90;;;;;;5094648;28;20043;-76
2023/12/11 12:29:36;;;;;;;11.93;1.70;;;9.50;99.90;;;;;;5094287;28;20049;-76
2023/12/11 12:32:02;;;;;;;;;;;9.50;99.90;;;;;;5111653;28;20552;-77
2023/12/11 12:34:31;;;;;;;14.73;2.75;;;9.50;99.90;;;;;;5110909;28;19930;-77
2023/12/11 12:37:01;;;;;;;12.73;2.35;;;9.30;99.90;;;;;;5110940;28;20047;-76
2023/12/11 12:39:26;;;;;;;12.60;2.67;;;9.30;99.90;;;;;;5111568;28;20042;-76
2023/12/11 12:41:52;;;;;;;16.58;2.83;;;9.30;99.90;;;;;;5094178;28;20039;-75
2023/12/11 12:44:20;;;;;;;14.40;2.47;;;9.20;99.90;;;;;;5094884;28;20044;-76
2023/12/11 12:46:46;;;;;;;18.23;2.83;;;9.20;99.90;;;;;;5077416;28;20058;-75